Flight Information

DEPARTURE
LAS VEGAS, NV
Elevation:
2205
Runways:
12L/30R - 4199x75 - ASPH-G
12R/30L - 5000x75 - ASPH-G
7/25 - 5005x75 - ASPH-G
ATIS:
118.05 702-631-7125
Clearance Delivery:
124
Ground:
121.7
Tower:
125.7
DESTINATION
,
Elevation:
TPA:
1000 (est.)


6605.1 NM74° True-14° Var60° HDG

Flight Plan:
(click to file on line)

1. Type
2. Aircraft Identification
3. Aircraft Type / Special Equipment
4. True Airspeed
kts
5. Departure Airport
(ICAO code)
6. Arriving Airport
(ICAO code)
7. Cruising Altitude
ft
8. Alternate Airport
(ICAO code)
9. Route of Flight
10. Remarks


00:00:00 Departure ATIS: Destination ATIS:

Clearance Limit:
Route:
Altitude: Expect in minutes
Frequency:
Transponder: (7500 Hijack / 7600 Lost Comms / 7700 Emergency)


KVGT 010653Z AUTO 00000KT 10SM CLR 17/M01 A2982 RMK AO2 SLP101 T01721006
Time: 2020-04-01T06:53:00Z
1585727662
Winds: calm
Visibility: 10.0 sm
Clouds (AGL): CLR
Temperature: 17.2 C
Dew Point: -0.6 C
Pressure: 29.819881 in Hgbr


Notes:

Data extracted from FAA Digital Chart Supplement. Effective: 0901Z Thursday, Mar 26, 2020 to 0901Z Thursday, May 21, 2020
Current ATIS data is provided courtisy of PilotEdge.